createdAt,value
2022-10-27T00:00:43.441Z,12.37
2022-10-27T00:05:40.744Z,11.46
2022-10-27T00:10:34.321Z,12.29
2022-10-27T00:15:27.710Z,12.91
2022-10-27T00:20:22.563Z,11.44
2022-10-27T00:25:17.461Z,12.83
2022-10-27T00:30:11.977Z,12.81
2022-10-27T00:35:06.031Z,12.79
2022-10-27T00:39:59.353Z,12.27
2022-10-27T00:44:54.156Z,11.51
2022-10-27T00:49:57.957Z,11.40
2022-10-27T00:54:52.051Z,12.69
2022-10-27T00:59:45.533Z,12.63
2022-10-27T01:04:46.718Z,12.63
2022-10-27T01:09:44.361Z,11.36
2022-10-27T01:14:38.551Z,11.34
2022-10-27T01:20:10.966Z,11.26
2022-10-27T01:25:35.574Z,11.26
2022-10-27T01:30:31.888Z,11.79
2022-10-27T01:35:35.473Z,11.43
2022-10-27T01:40:41.155Z,11.27
2022-10-27T01:45:41.757Z,11.81
2022-10-27T01:50:50.827Z,11.43
2022-10-27T01:56:05.811Z,10.97
2022-10-27T02:01:13.993Z,10.97
2022-10-27T02:06:16.790Z,10.64
2022-10-27T02:11:11.778Z,11.03
2022-10-27T02:16:10.163Z,11.20
2022-10-27T02:21:07.850Z,10.25
2022-10-27T02:26:32.778Z,11.50
2022-10-27T02:31:30.648Z,10.68
2022-10-27T02:36:24.762Z,9.95
2022-10-27T02:41:22.095Z,11.31
2022-10-27T02:46:15.721Z,10.62
2022-10-27T02:51:13.055Z,9.86
2022-10-27T02:56:10.568Z,10.60
2022-10-27T03:01:09.429Z,10.06
2022-10-27T03:06:05.983Z,9.60
2022-10-27T03:11:00.094Z,10.43
2022-10-27T03:27:23.335Z,10.52
2022-10-27T03:32:21.397Z,10.78
2022-10-27T03:37:21.798Z,10.23
2022-10-27T03:42:16.207Z,9.70
2022-10-27T03:47:09.862Z,9.55
2022-10-27T03:52:06.337Z,10.29
2022-10-27T03:57:01.150Z,10.30
2022-10-27T04:01:56.774Z,9.56
2022-10-27T04:06:56.510Z,10.68
2022-10-27T04:11:50.096Z,9.59
2022-10-27T04:16:45.129Z,9.43
2022-10-27T04:22:05.903Z,10.48
2022-10-27T04:27:02.928Z,9.26
2022-10-27T04:32:00.542Z,10.18
2022-10-27T04:36:55.937Z,9.30
2022-10-27T04:41:50.749Z,10.17
2022-10-27T04:46:44.450Z,9.44
2022-10-27T04:51:42.457Z,10.47
2022-10-27T04:56:36.845Z,10.33
2022-10-27T05:01:31.994Z,10.48
2022-10-27T05:06:26.604Z,9.12
2022-10-27T05:11:21.622Z,9.22
2022-10-27T05:16:16.941Z,9.31
2022-10-27T05:21:10.639Z,9.46
2022-10-27T05:26:13.107Z,10.29
2022-10-27T05:31:07.745Z,10.01
2022-10-27T05:36:00.889Z,10.24
2022-10-27T05:40:57.371Z,10.14
2022-10-27T05:45:50.566Z,10.01
2022-10-27T05:50:45.043Z,10.16
2022-10-27T05:55:38.268Z,10.20
2022-10-27T06:00:33.380Z,9.53
2022-10-27T06:05:27.074Z,10.24
2022-10-27T06:10:21.827Z,10.32
2022-10-27T06:15:15.508Z,10.34
2022-10-27T06:20:09.412Z,10.24
2022-10-27T06:25:02.475Z,10.76
2022-10-27T06:29:56.960Z,10.63
2022-10-27T06:34:50.040Z,10.74
2022-10-27T06:39:43.137Z,11.06
2022-10-27T06:44:36.189Z,11.48
2022-10-27T06:49:33.450Z,11.07
2022-10-27T06:54:27.106Z,11.84
2022-10-27T06:59:20.178Z,12.11
2022-10-27T07:04:13.252Z,12.24
2022-10-27T07:09:09.821Z,12.58
2022-10-27T07:14:03.316Z,12.84
2022-10-27T07:18:56.489Z,12.91
2022-10-27T07:23:49.532Z,13.34
2022-10-27T07:28:43.968Z,13.60
2022-10-27T07:33:37.122Z,13.70
2022-10-27T07:38:32.771Z,13.99
2022-10-27T07:43:25.861Z,14.17
2022-10-27T07:48:20.368Z,14.62
2022-10-27T07:53:15.524Z,14.84
2022-10-27T07:58:11.100Z,15.08
2022-10-27T08:03:05.144Z,15.13
2022-10-27T08:08:00.433Z,15.37
2022-10-27T08:12:53.653Z,15.49
2022-10-27T08:17:52.068Z,15.58
2022-10-27T08:22:45.482Z,15.83
2022-10-27T08:27:40.171Z,15.08
2022-10-27T08:37:27.406Z,16.19
2022-10-27T08:42:34.711Z,16.32
2022-10-27T08:47:29.794Z,16.55
2022-10-27T08:52:29.223Z,17.10
2022-10-27T08:57:26.646Z,17.82
2022-10-27T09:02:50.696Z,18.72
2022-10-27T09:07:53.049Z,19.34
2022-10-27T09:13:03.177Z,20.20
2022-10-27T09:18:03.776Z,20.53
2022-10-27T09:23:00.796Z,20.46
2022-10-27T09:27:56.017Z,20.71
2022-10-27T09:32:53.931Z,20.76
2022-10-27T09:37:49.186Z,20.87
2022-10-27T09:42:42.657Z,20.68
2022-10-27T09:47:39.914Z,20.68
2022-10-27T09:52:36.905Z,20.82
2022-10-27T09:57:35.334Z,21.11
2022-10-27T10:02:32.622Z,21.12
2022-10-27T10:07:33.248Z,20.70
2022-10-27T10:12:27.487Z,20.59
2022-10-27T10:17:29.572Z,20.67
2022-10-27T10:22:28.934Z,20.79
2022-10-27T10:27:31.345Z,20.61
2022-10-27T10:32:26.818Z,20.59
2022-10-27T10:37:37.481Z,20.94
2022-10-27T10:42:30.605Z,20.73
2022-10-27T10:47:29.321Z,20.94
2022-10-27T10:52:25.824Z,20.95
2022-10-27T10:57:32.049Z,21.03
2022-10-27T11:02:30.221Z,21.37
2022-10-27T11:07:27.011Z,21.65
2022-10-27T11:12:29.307Z,21.75
2022-10-27T11:17:25.146Z,21.72
2022-10-27T11:22:22.133Z,21.67
2022-10-27T11:27:21.189Z,22.00
2022-10-27T11:32:21.498Z,21.99
2022-10-27T11:37:23.727Z,22.16
2022-10-27T11:42:27.393Z,22.16
2022-10-27T11:47:31.217Z,21.80
2022-10-27T11:52:30.254Z,22.03
2022-10-27T11:57:39.740Z,22.27
2022-10-27T12:02:48.591Z,22.27
2022-10-27T12:07:55.500Z,22.00
2022-10-27T12:12:52.223Z,22.30
2022-10-27T12:17:51.278Z,21.95
2022-10-27T12:22:51.605Z,22.35
2022-10-27T12:27:51.166Z,21.58
2022-10-27T12:32:52.099Z,22.09
2022-10-27T12:37:58.980Z,22.23
2022-10-27T12:43:04.509Z,22.31
2022-10-27T12:48:09.152Z,22.13
2022-10-27T12:53:13.089Z,21.92
2022-10-27T12:58:11.938Z,22.07
2022-10-27T13:03:39.827Z,22.01
2022-10-27T13:08:56.348Z,21.85
2022-10-27T13:14:12.095Z,21.89
2022-10-27T13:19:20.569Z,22.02
2022-10-27T13:24:30.184Z,22.02
2022-10-27T13:29:35.231Z,21.99
2022-10-27T13:34:29.813Z,21.98
2022-10-27T13:39:47.937Z,21.99
2022-10-27T13:44:41.261Z,21.67
2022-10-27T13:50:00.234Z,21.08
2022-10-27T13:54:56.048Z,21.89
2022-10-27T13:59:50.818Z,21.68
2022-10-27T14:04:51.265Z,21.65
2022-10-27T14:09:49.489Z,21.71
2022-10-27T14:14:42.963Z,21.69
2022-10-27T14:19:38.899Z,21.46
2022-10-27T14:24:47.292Z,21.36
2022-10-27T14:29:40.541Z,20.97
2022-10-27T14:34:36.480Z,20.95
2022-10-27T14:39:34.338Z,20.64
2022-10-27T14:44:31.422Z,20.87
2022-10-27T14:49:33.759Z,19.85
2022-10-27T14:54:30.214Z,20.53
2022-10-27T14:59:25.463Z,20.43
2022-10-27T15:04:25.465Z,19.11
2022-10-27T15:09:31.939Z,20.03
2022-10-27T15:14:25.618Z,19.73
2022-10-27T15:19:22.522Z,19.48
2022-10-27T15:24:18.810Z,18.80
2022-10-27T15:29:17.160Z,18.30
2022-10-27T15:39:27.663Z,19.05
2022-10-27T15:44:27.040Z,18.50
2022-10-27T15:49:29.472Z,18.38
2022-10-27T15:54:33.245Z,18.03
2022-10-27T15:59:28.267Z,18.22
2022-10-27T16:04:32.550Z,18.22
2022-10-27T16:09:41.549Z,17.78
2022-10-27T16:14:34.982Z,18.21
2022-10-27T16:19:28.383Z,18.14
2022-10-27T16:24:24.632Z,17.73
2022-10-27T16:29:23.169Z,17.00
2022-10-27T16:34:23.632Z,17.22
2022-10-27T16:39:22.871Z,17.90
2022-10-27T16:44:17.169Z,17.85
2022-10-27T16:49:11.849Z,17.79
2022-10-27T16:54:05.336Z,17.15
2022-10-27T16:59:11.731Z,17.67
2022-10-27T17:04:05.292Z,17.44
2022-10-27T17:09:00.364Z,17.04
2022-10-27T17:13:53.866Z,16.48
2022-10-27T17:18:47.830Z,17.30
2022-10-27T17:23:42.502Z,17.14
2022-10-27T17:28:37.458Z,16.60
2022-10-27T17:33:30.949Z,16.71
2022-10-27T17:38:27.017Z,16.57
2022-10-27T17:43:20.209Z,17.08
2022-10-27T17:48:14.831Z,17.03
2022-10-27T17:53:08.095Z,16.63
2022-10-27T17:58:01.771Z,16.60
2022-10-27T18:02:55.133Z,15.99
2022-10-27T18:07:50.206Z,16.21
2022-10-27T18:12:43.537Z,15.80
2022-10-27T18:17:36.705Z,15.42
2022-10-27T18:22:30.645Z,15.48
2022-10-27T18:27:27.767Z,15.28
2022-10-27T18:32:22.501Z,14.83
2022-10-27T18:37:15.651Z,14.62
2022-10-27T18:42:08.830Z,14.77
2022-10-27T18:47:03.537Z,14.43
2022-10-27T18:51:56.748Z,13.64
2022-10-27T18:56:50.102Z,14.09
2022-10-27T19:01:44.447Z,14.25
2022-10-27T19:06:39.270Z,14.18
2022-10-27T19:11:35.359Z,14.12
2022-10-27T19:16:30.991Z,14.05
2022-10-27T19:21:27.738Z,13.80
2022-10-27T19:26:26.324Z,13.50
2022-10-27T19:31:21.712Z,13.63
2022-10-27T19:36:17.944Z,13.79
2022-10-27T19:41:12.781Z,13.73
2022-10-27T19:46:07.848Z,13.66
2022-10-27T19:51:10.455Z,13.10
2022-10-27T19:56:04.391Z,12.09
2022-10-27T20:00:57.777Z,13.50
2022-10-27T20:05:56.278Z,13.20
2022-10-27T20:10:49.805Z,13.38
2022-10-27T20:15:43.107Z,13.03
2022-10-27T20:20:36.318Z,12.50
2022-10-27T20:25:31.010Z,12.13
2022-10-27T20:30:26.748Z,13.22
2022-10-27T20:35:19.984Z,13.19
2022-10-27T20:40:21.973Z,13.19
2022-10-27T20:45:16.942Z,12.06
2022-10-27T20:50:11.204Z,12.42
2022-10-27T20:55:05.786Z,13.00
2022-10-27T20:59:59.161Z,12.46
2022-10-27T21:04:54.184Z,12.66
2022-10-27T21:09:47.486Z,12.85
2022-10-27T21:14:40.736Z,12.26
2022-10-27T21:19:36.636Z,12.73
2022-10-27T21:24:33.925Z,13.00
2022-10-27T21:29:44.864Z,12.67
2022-10-27T21:34:38.275Z,13.07
2022-10-27T21:39:32.934Z,12.14
2022-10-27T21:44:27.895Z,12.84
2022-10-27T21:49:22.213Z,13.10
2022-10-27T21:54:15.403Z,12.64
2022-10-27T21:59:10.032Z,13.05
2022-10-27T22:04:03.495Z,12.91
2022-10-27T22:08:57.572Z,12.77
2022-10-27T22:13:51.691Z,13.06
2022-10-27T22:18:47.347Z,11.81
2022-10-27T22:23:40.727Z,12.69
2022-10-27T22:28:34.276Z,12.92
2022-10-27T22:33:27.523Z,12.63
2022-10-27T22:38:22.202Z,12.78
2022-10-27T22:43:18.108Z,12.70
2022-10-27T22:48:11.305Z,12.31
2022-10-27T22:53:04.492Z,12.57
2022-10-27T22:57:59.043Z,12.42
2022-10-27T23:02:52.547Z,11.41
2022-10-27T23:07:45.985Z,12.26
2022-10-27T23:12:39.291Z,12.38
2022-10-27T23:17:33.925Z,12.34
2022-10-27T23:22:27.382Z,12.23
2022-10-27T23:27:20.826Z,12.40
2022-10-27T23:32:14.035Z,12.26
2022-10-27T23:37:08.542Z,12.23
2022-10-27T23:42:01.693Z,11.55
2022-10-27T23:46:54.918Z,12.17
2022-10-27T23:51:48.166Z,12.10
2022-10-27T23:56:43.906Z,11.47
